Latest Weather Observations for Esperance

IDW60801

Issued at 3:33 am WST Thursday 25 August 2016 (issued every 30 minutes, with the page automatically refreshed every 10 minutes)

About weather observations | Map of weather stations | Latest weather observations for WA | Other Formats
Station Details ID: 009789 Name: ESPERANCE Lat: -33.83 Lon: 121.89 Height: 25.0 m
Data from the previous 72 hours. | See also: Recent months at Esperance
Date/Time
WST
Temp
°C
App
Temp
°C
Dew
Point
°C
Rel
Hum
%
Delta-T
°C
Wind Press
QNH
hPa
Press
MSL
hPa
Rain since
9am
mm
Dir  Spd
km/h
Gust
km/h
Spd
kts
Gust
kts
25/03:30am 7.1 4.2 4.8 85 1.0 WNW 9 11 5 6 1026.2 1026.2 1.0
25/03:00am 6.5 4.1 5.1 91 0.6 WNW 7 9 4 5 1026.5 1026.5 1.0
25/02:30am 6.3 3.5 5.2 93 0.5 WNW 9 9 5 5 1026.6 1026.6 1.0
25/02:00am 6.2 5.0 4.8 91 0.6 CALM 0 0 0 0 1026.8 1026.8 1.0
25/01:30am 6.1 5.0 4.9 92 0.5 CALM 0 0 0 0 1026.9 1026.9 1.0
25/01:00am 5.9 3.4 4.7 92 0.5 NNW 7 9 4 5 1026.9 1026.9 1.0
25/12:30am 5.8 2.9 4.4 91 0.6 N 9 9 5 5 1026.9 1026.9 1.0
25/12:00am 6.2 3.6 4.3 88 0.8 N 7 9 4 5 1026.9 1026.9 1.0
 
Date/Time
WST
Temp
°C
App
Temp
°C
Dew
Point
°C
Rel
Hum
%
Delta-T
°C
Wind Press
QNH
hPa
Press
MSL
hPa
Rain since
9am
mm
Dir  Spd
km/h
Gust
km/h
Spd
kts
Gust
kts
24/11:30pm 6.5 3.8 5.6 94 0.4 NNW 9 9 5 5 1026.8 1026.8 1.0
24/11:00pm 7.8 5.5 5.6 86 1.0 NE 7 11 4 6 1026.9 1026.9 1.0
24/10:30pm 7.9 5.5 5.4 84 1.1 NNW 7 9 4 5 1026.8 1026.8 1.0
24/10:00pm 8.5 6.3 6.1 85 1.1 NE 7 9 4 5 1026.8 1026.8 1.0
24/09:30pm 9.9 7.0 4.5 69 2.4 ESE 9 13 5 7 1026.7 1026.7 1.0
24/09:00pm 9.9 7.4 4.5 69 2.4 ESE 7 13 4 7 1026.7 1026.7 1.0
24/08:30pm 10.4 6.6 3.8 63 2.9 SE 13 19 7 10 1026.7 1026.7 1.0
24/08:00pm 10.7 5.6 3.3 60 3.2 SE 19 26 10 14 1026.7 1026.7 1.0
24/07:30pm 10.9 5.4 3.9 62 3.1 SSE 22 32 12 17 1026.6 1026.6 1.0
24/07:00pm 10.9 6.0 5.2 68 2.6 SE 20 32 11 17 1026.4 1026.4 1.0
24/06:30pm 11.0 5.8 3.7 60 3.2 SSE 20 30 11 16 1026.3 1026.3 1.0
24/06:00pm 11.3 5.7 3.6 59 3.4 SSE 22 33 12 18 1025.8 1025.8 1.0
24/05:30pm 11.6 5.8 4.5 61 3.2 SSE 24 33 13 18 1025.5 1025.5 1.0
24/05:00pm 11.7 5.9 4.6 62 3.2 SSE 24 39 13 21 1025.2 1025.2 1.0
24/04:30pm 11.8 6.2 5.3 64 3.0 SSE 24 32 13 17 1024.9 1024.9 1.0
24/04:00pm 11.6 5.9 6.5 71 2.4 SSE 26 39 14 21 1024.7 1024.7 1.0
24/03:30pm 11.7 6.1 7.3 74 2.1 SSE 26 41 14 22 1024.3 1024.3 1.0
24/03:00pm 12.4 6.7 6.7 68 2.7 SSE 26 37 14 20 1024.2 1024.2 1.0
24/02:30pm 11.8 5.7 8.3 79 1.7 SSE 30 43 16 23 1024.0 1024.0 1.0
24/02:00pm 12.8 7.3 7.4 69 2.6 S 26 35 14 19 1023.8 1023.8 1.0
24/01:30pm 12.0 8.5 8.8 81 1.6 SSE 17 30 9 16 1023.9 1023.9 1.0
24/01:00pm 10.9 5.6 9.7 92 0.6 SSE 28 41 15 22 1024.2 1024.2 1.0
24/12:30pm 10.6 6.5 10.0 96 0.3 S 22 33 12 18 1024.6 1024.6 1.0
24/12:17pm 11.3 6.8 9.9 91 0.7 S 24 37 13 20 1024.7 1024.7 0.4
24/12:00pm 10.9 7.2 10.1 95 0.4 S 20 32 11 17 1024.8 1024.8 0.4
24/11:50am 11.2 7.3 9.6 90 0.8 S 20 33 11 18 1025.0 1025.0 0.0
24/11:30am 11.3 7.2 8.7 84 1.3 S 20 30 11 16 1025.1 1025.1 0.0
24/11:13am 11.4 6.6 9.0 85 1.2 SSW 24 37 13 20 1025.3 1025.3 0.0
24/11:00am 13.5 8.6 7.1 65 3.1 SSW 22 33 12 18 1025.3 1025.3 0.0
24/10:30am 13.1 8.7 6.6 64 3.1 SSW 19 35 10 19 1025.3 1025.3 0.0
24/10:00am 12.8 8.6 7.4 69 2.6 SSW 19 32 10 17 1025.4 1025.4 0.0
24/09:30am 11.8 7.4 7.2 73 2.2 SSW 20 37 11 20 1025.3 1025.3 0.0
24/09:00am 12.1 8.5 6.8 70 2.5 SW 15 20 8 11 1025.1 1025.1 10.0
24/08:30am 11.7 7.2 6.1 68 2.6 SW 19 28 10 15 1025.1 1025.1 10.0
24/08:00am 11.7 7.4 5.1 64 3.0 SSW 17 28 9 15 1025.1 1025.1 10.0
24/07:30am 11.2 7.5 4.2 62 3.1 SSW 13 19 7 10 1024.9 1024.9 10.0
24/07:00am 10.6 7.4 3.2 60 3.2 SW 9 15 5 8 1024.8 1024.8 10.0
24/06:30am 10.2 6.6 3.0 61 3.1 SW 11 15 6 8 1024.7 1024.7 10.0
24/06:00am 10.2 6.6 3.0 61 3.1 SSW 11 17 6 9 1024.6 1024.6 10.0
24/05:30am 10.5 6.6 3.4 61 3.1 SSW 13 17 7 9 1024.5 1024.5 10.0
24/05:00am 10.0 6.2 3.8 65 2.7 SSW 13 17 7 9 1024.3 1024.3 10.0
24/04:30am 8.4 5.7 5.5 82 1.3 WNW 9 13 5 7 1024.1 1024.1 10.0
24/04:00am 9.1 6.2 4.8 74 1.9 WSW 9 13 5 7 1024.0 1024.0 10.0
24/03:30am 9.4 6.4 4.2 70 2.3 SW 9 13 5 7 1023.8 1023.8 10.0
24/03:00am 8.8 5.4 4.0 72 2.1 WSW 11 13 6 7 1023.9 1023.9 10.0
24/02:30am 9.3 5.9 2.1 61 3.0 SSW 9 11 5 6 1024.0 1024.0 10.0
24/02:00am 9.1 5.3 1.6 59 3.1 SSW 11 13 6 7 1024.2 1024.2 10.0
24/01:30am 9.7 5.5 1.8 58 3.3 SSW 13 15 7 8 1024.2 1024.2 10.0
24/01:00am 10.1 6.0 2.3 58 3.3 S 13 19 7 10 1024.3 1024.3 10.0
24/12:30am 10.1 6.3 2.0 57 3.4 S 11 15 6 8 1024.3 1024.3 10.0
24/12:00am 9.6 5.7 1.0 55 3.5 S 11 13 6 7 1024.2 1024.2 10.0
 
Date/Time
WST
Temp
°C
App
Temp
°C
Dew
Point
°C
Rel
Hum
%
Delta-T
°C
Wind Press
QNH
hPa
Press
MSL
hPa
Rain since
9am
mm
Dir  Spd
km/h
Gust
km/h
Spd
kts
Gust
kts
23/11:30pm 10.1 5.9 1.4 55 3.6 S 13 17 7 9 1024.2 1024.2 10.0
23/11:00pm 10.3 5.7 1.7 55 3.6 SSE 15 22 8 12 1024.4 1024.4 10.0
23/10:30pm 11.0 5.3 0.8 49 4.2 SSE 20 28 11 15 1024.6 1024.6 10.0
23/10:00pm 11.0 5.7 1.7 52 3.9 SSE 19 30 10 16 1024.5 1024.5 10.0
23/09:30pm 11.2 5.5 2.6 55 3.7 SSE 22 32 12 17 1024.6 1024.6 10.0
23/09:00pm 11.3 5.6 3.0 56 3.6 SSE 22 33 12 18 1024.4 1024.4 10.0
23/08:30pm 11.3 5.3 3.3 58 3.5 SSE 24 35 13 19 1024.2 1024.2 10.0
23/08:00pm 11.3 5.3 3.6 59 3.4 SSE 24 35 13 19 1023.9 1023.9 10.0
23/07:30pm 11.2 5.4 4.3 62 3.1 SSE 24 35 13 19 1023.6 1023.6 10.0
23/07:00pm 11.1 5.1 5.2 67 2.7 SSE 26 35 14 19 1023.3 1023.3 10.0
23/06:30pm 11.0 5.9 6.0 71 2.3 SSE 22 32 12 17 1023.1 1023.1 10.0
23/06:00pm 10.4 4.4 7.0 79 1.6 S 28 37 15 20 1022.9 1022.9 10.0
23/05:38pm 10.1 6.0 8.0 87 1.0 SSE 19 28 10 15 1022.6 1022.6 10.0
23/05:30pm 10.1 6.0 8.0 87 1.0 SSE 19 26 10 14 1022.5 1022.5 10.0
23/05:00pm 9.9 5.1 8.9 93 0.5 SSE 24 39 13 21 1022.3 1022.3 9.2
23/04:30pm 9.8 4.6 9.0 95 0.4 SSE 26 35 14 19 1022.2 1022.2 8.4
23/04:29pm 9.8 4.6 8.8 93 0.5 SSE 26 35 14 19 1022.1 1022.1 8.4
23/04:27pm 9.8 4.2 8.8 93 0.5 S 28 35 15 19 1022.0 1022.0 8.4
23/04:01pm 10.0 5.6 8.8 92 0.6 SSE 22 35 12 19 1021.8 1021.8 7.8
23/04:00pm 10.1 5.7 9.1 93 0.5 SSE 22 35 12 19 1021.8 1021.8 7.8
23/03:36pm 9.8 5.9 9.4 97 0.2 S 20 30 11 16 1021.7 1021.7 7.6
23/03:30pm 9.8 5.8 9.2 96 0.3 S 20 30 11 16 1021.7 1021.7 7.6
23/03:00pm 9.6 5.7 9.4 99 0.1 SSE 20 30 11 16 1021.7 1021.7 6.6
23/02:30pm 10.6 7.2 9.2 91 0.7 S 17 24 9 13 1021.4 1021.4 2.2
23/02:00pm 11.0 6.9 8.8 86 1.1 S 20 32 11 17 1021.3 1021.3 1.8
23/01:30pm 11.1 6.3 8.7 85 1.2 S 24 30 13 16 1021.2 1021.2 1.8
23/01:00pm 11.5 6.6 8.4 81 1.5 SSE 24 37 13 20 1021.0 1021.0 1.2
23/12:30pm 10.7 5.2 9.1 90 0.8 SSE 28 41 15 22 1021.2 1021.2 1.2
23/12:00pm 11.7 7.5 8.2 79 1.7 S 20 32 11 17 1021.5 1021.5 1.2
23/11:30am 11.2 7.0 8.1 81 1.5 S 20 30 11 16 1021.7 1021.7 1.2
23/11:00am 10.7 7.2 8.7 87 1.0 S 17 24 9 13 1022.1 1022.1 1.2
23/10:30am 10.2 4.1 8.1 87 1.0 SSE 30 39 16 21 1022.1 1022.1 0.2
23/10:28am 10.6 4.8 8.1 84 1.2 SSE 28 39 15 21 1022.1 1022.1 0.2
23/10:00am 11.3 5.9 6.2 71 2.4 S 24 35 13 19 1021.9 1021.9 0.0
23/09:30am 12.0 5.4 4.2 59 3.5 S 28 43 15 23 1021.6 1021.6 0.0
23/09:00am 12.0 5.0 4.2 59 3.5 S 30 41 16 22 1021.5 1021.5 3.4
23/08:30am 11.7 4.3 4.1 59 3.4 S 32 44 17 24 1021.2 1021.2 3.4
23/08:00am 11.6 5.1 4.8 63 3.1 S 28 44 15 24 1020.8 1020.8 3.4
23/07:30am 11.3 4.2 5.4 67 2.7 S 32 50 17 27 1020.8 1020.8 3.4
23/07:00am 10.9 3.8 5.7 70 2.4 S 32 46 17 25 1020.6 1020.6 3.4
23/06:36am 11.5 4.9 4.1 60 3.3 S 28 50 15 27 1020.1 1020.1 3.4
23/06:30am 11.4 4.8 4.3 61 3.2 S 28 44 15 24 1020.3 1020.3 3.4
23/06:00am 11.2 3.9 4.3 62 3.1 S 32 44 17 24 1019.9 1019.9 3.4
23/05:33am 11.4 4.0 4.8 64 3.0 S 33 54 18 29 1019.5 1019.5 3.4
23/05:30am 11.4 4.2 4.8 64 3.0 S 32 48 17 26 1019.4 1019.4 3.4
23/05:00am 11.4 4.5 4.5 62 3.1 S 30 48 16 26 1019.2 1019.2 3.4
23/04:31am 11.4 3.9 4.3 61 3.2 S 33 52 18 28 1018.8 1018.8 3.4
23/04:30am 11.3 4.0 4.4 62 3.1 S 32 48 17 26 1018.9 1018.9 3.4
23/04:00am 11.0 4.7 5.6 69 2.5 S 28 43 15 23 1018.7 1018.7 3.4
23/03:30am 11.0 3.9 5.6 69 2.5 S 32 46 17 25 1018.5 1018.5 3.4
23/03:19am 11.2 4.0 5.8 69 2.5 S 33 54 18 29 1018.3 1018.3 3.4
23/03:00am 11.2 4.0 5.8 69 2.5 S 33 48 18 26 1018.4 1018.4 3.4
23/02:30am 10.5 4.3 7.8 83 1.3 S 30 48 16 26 1018.3 1018.3 3.4
23/02:18am 10.4 3.8 7.7 83 1.3 S 32 50 17 27 1018.3 1018.3 3.4
23/02:12am 10.5 3.7 7.6 82 1.4 S 33 44 18 24 1018.3 1018.3 3.4
23/02:00am 10.2 3.0 7.5 83 1.3 S 35 54 19 29 1018.3 1018.3 3.4
23/01:59am 10.1 2.9 7.8 86 1.1 S 35 54 19 29 1018.3 1018.3 3.4
23/01:53am 10.4 2.5 7.7 83 1.3 S 39 54 21 29 1018.2 1018.2 3.2
23/01:31am 10.8 3.9 6.3 74 2.1 S 32 50 17 27 1018.1 1018.1 2.8
23/01:30am 10.7 3.8 6.4 75 2.0 S 32 50 17 27 1018.2 1018.2 2.8
23/01:10am 10.4 3.2 7.7 83 1.3 S 35 56 19 30 1018.5 1018.5 2.6
23/01:00am 10.9 4.1 6.7 75 2.0 S 32 50 17 27 1018.4 1018.4 2.6
23/12:32am 10.6 3.9 7.2 79 1.6 S 32 50 17 27 1018.2 1018.2 2.6
23/12:31am 10.4 3.7 7.5 82 1.4 S 32 50 17 27 1018.4 1018.4 2.6
23/12:30am 10.4 3.6 7.5 82 1.4 S 33 50 18 27 1018.4 1018.4 2.6
23/12:07am 10.3 3.5 7.8 84 1.2 S 33 48 18 26 1018.4 1018.4 2.2
23/12:00am 10.6 4.0 7.7 82 1.4 S 32 52 17 28 1018.2 1018.2 2.0
 
Date/Time
WST
Temp
°C
App
Temp
°C
Dew
Point
°C
Rel
Hum
%
Delta-T
°C
Wind Press
QNH
hPa
Press
MSL
hPa
Rain since
9am
mm
Dir  Spd
km/h
Gust
km/h
Spd
kts
Gust
kts
22/11:50pm 10.2 4.4 8.1 87 1.0 S 28 50 15 27 1018.2 1018.2 2.0
22/11:30pm 10.2 3.5 8.3 88 0.9 S 33 54 18 29 1018.3 1018.3 2.0
22/11:28pm 10.4 3.7 8.1 86 1.1 S 33 50 18 27 1018.2 1018.2 1.8
22/11:00pm 11.2 4.4 6.8 74 2.1 S 32 54 17 29 1018.2 1018.2 1.8
22/10:30pm 11.2 3.9 7.0 75 2.0 S 35 54 19 29 1018.0 1018.0 1.8
22/10:15pm 11.2 4.4 7.0 75 2.0 S 32 50 17 27 1018.0 1018.0 1.8
22/10:00pm 11.0 3.7 7.2 77 1.8 S 35 50 19 27 1018.0 1018.0 1.8
22/09:30pm 11.4 3.8 6.0 69 2.5 S 35 59 19 32 1017.8 1017.8 1.8
22/09:21pm 11.1 4.7 7.1 76 1.9 S 30 48 16 26 1017.9 1017.9 1.8
22/09:01pm 10.8 3.6 7.5 80 1.6 S 35 56 19 30 1017.6 1017.6 1.8
22/09:00pm 10.6 3.4 7.5 81 1.5 S 35 50 19 27 1017.8 1017.8 1.8
22/08:52pm 10.7 3.8 7.1 78 1.7 S 33 50 18 27 1017.6 1017.6 1.6
22/08:37pm 10.2 3.9 8.8 91 0.7 S 32 50 17 27 1017.7 1017.7 1.6
22/08:31pm 10.5 3.6 8.9 90 0.8 S 35 52 19 28 1017.8 1017.8 1.4
22/08:30pm 10.7 3.8 8.7 87 1.0 S 35 52 19 28 1017.7 1017.7 1.4
22/08:00pm 11.7 5.7 6.9 72 2.3 S 28 48 15 26 1017.5 1017.5 1.2
22/07:30pm 11.7 4.7 6.9 72 2.3 S 33 54 18 29 1017.1 1017.1 1.2
22/07:01pm 10.9 3.4 6.4 74 2.1 S 35 54 19 29 1017.0 1017.0 1.2
22/07:00pm 10.8 3.0 6.5 75 2.0 S 37 54 20 29 1016.9 1016.9 1.2
22/06:42pm 11.1 4.1 6.9 75 2.0 SSW 33 56 18 30 1016.6 1016.6 1.2
22/06:30pm 10.1 3.1 8.5 90 0.8 SSW 35 57 19 31 1016.6 1016.6 1.2
22/06:00pm 10.8 4.0 7.7 81 1.5 S 33 59 18 32 1016.0 1015.9 0.6
22/05:56pm 10.6 2.7 7.9 83 1.3 S 39 65 21 35 1016.0 1015.9 0.6
22/05:35pm 10.9 3.2 7.1 77 1.8 SSW 37 56 20 30 1015.6 1015.5 0.6
22/05:30pm 10.7 2.6 7.1 78 1.7 SSW 39 56 21 30 1015.3 1015.3 0.6
22/05:13pm 11.2 4.4 7.7 79 1.7 S 33 54 18 29 1015.2 1015.2 0.6
22/05:00pm 10.4 4.0 8.4 87 1.0 S 32 59 17 32 1014.9 1014.9 0.6
22/04:53pm 10.4 3.9 8.8 90 0.8 SSW 33 59 18 32 1014.8 1014.8 0.6
22/04:30pm 12.2 4.8 6.8 69 2.6 S 35 56 19 30 1014.6 1014.6 0.4
22/04:00pm 12.0 4.8 7.7 75 2.1 S 35 54 19 29 1014.2 1014.2 0.4
22/03:30pm 11.8 4.8 8.6 81 1.6 S 35 57 19 31 1013.7 1013.7 0.4
22/03:01pm 12.4 5.1 7.0 69 2.6 SSW 35 54 19 29 1013.4 1013.4 0.4
22/03:00pm 12.5 5.5 6.9 68 2.7 SSW 33 50 18 27 1013.4 1013.4 0.4
22/02:30pm 12.5 5.6 6.4 66 2.9 SSW 32 52 17 28 1013.1 1013.1 0.4
22/02:04pm 12.7 5.2 6.2 64 3.1 SSW 35 54 19 29 1012.9 1012.9 0.4
22/02:00pm 13.0 6.0 6.8 66 3.0 SSW 33 50 18 27 1013.0 1013.0 0.4
22/01:30pm 13.2 6.4 6.8 65 3.1 SSW 32 50 17 27 1012.9 1012.9 0.4
22/01:01pm 13.3 6.3 6.9 65 3.1 SSW 33 52 18 28 1012.8 1012.8 0.4
22/01:00pm 13.1 5.7 6.6 64 3.1 SSW 35 52 19 28 1012.9 1012.9 0.4
22/12:30pm 13.4 6.4 7.0 65 3.1 SSW 33 52 18 28 1012.8 1012.8 0.4
22/12:00pm 12.5 6.3 9.3 81 1.6 SSW 32 54 17 29 1012.9 1012.9 0.4
22/11:30am 12.7 6.6 8.3 74 2.2 SSW 30 50 16 27 1013.0 1013.0 0.4
22/11:18am 12.1 6.4 8.5 78 1.8 SSW 28 46 15 25 1013.0 1013.0 0.4
22/11:17am 12.1 6.3 8.0 76 2.0 SSW 28 46 15 25 1012.8 1012.8 0.4
22/11:00am 11.3 5.5 9.3 87 1.0 SSW 30 44 16 24 1013.0 1013.0 0.2
22/10:50am 11.2 4.0 9.2 87 1.0 SSW 37 52 20 28 1013.0 1013.0 0.2
22/10:30am 12.1 4.9 7.8 75 2.1 SSW 35 57 19 31 1012.7 1012.7 0.2
22/10:05am 12.1 5.4 7.3 72 2.3 SSW 32 50 17 27 1012.7 1012.7 0.2
22/10:00am 12.0 4.4 7.7 75 2.1 SSW 37 52 20 28 1012.5 1012.5 0.2
22/09:41am 12.1 6.0 8.3 77 1.9 SSW 30 50 16 27 1012.2 1012.2 0.2
22/09:30am 11.9 6.7 8.9 82 1.5 S 26 43 14 23 1012.1 1012.1 0.2
22/09:00am 11.6 6.9 9.2 85 1.2 S 24 37 13 20 1011.7 1011.7 1.6
22/08:30am 11.7 7.0 9.1 84 1.3 S 24 37 13 20 1011.5 1011.5 1.4
22/08:00am 11.5 7.3 9.7 89 0.9 S 22 33 12 18 1011.2 1011.2 1.4
22/07:51am 11.1 7.8 9.5 90 0.8 SSW 17 32 9 17 1011.0 1011.0 1.4
22/07:30am 9.9 6.2 9.5 97 0.2 NNW 19 26 10 14 1011.0 1011.0 1.0
22/07:14am 9.8 5.7 8.8 93 0.5 NNW 20 28 11 15 1010.9 1010.9 0.0
22/07:00am 9.7 5.5 8.3 91 0.7 NNW 20 26 11 14 1010.8 1010.8 0.0
22/06:53am 9.8 5.2 8.1 89 0.8 NW 22 28 12 15 1010.8 1010.8 0.0
22/06:30am 9.5 5.4 8.0 90 0.7 NW 19 26 10 14 1010.7 1010.7 0.0
22/06:00am 9.5 5.8 7.8 89 0.8 NW 17 24 9 13 1010.7 1010.7 0.0
22/05:30am 9.7 5.5 7.6 87 1.0 NW 19 26 10 14 1010.7 1010.7 0.0
22/05:00am 9.4 6.0 7.5 88 0.9 NNW 15 20 8 11 1010.6 1010.6 0.0
22/04:30am 9.7 5.9 7.4 85 1.1 NW 17 22 9 12 1010.5 1010.5 0.0
22/04:00am 9.6 6.1 7.1 84 1.2 NW 15 20 8 11 1010.6 1010.6 0.0

Other Formats:

Comma delimited format used in spreadsheet applications
http://www.bom.gov.au/fwo/IDW60801/IDW60801.94638.axf

JavaScript Object Notation format (JSON) in row-major order
http://www.bom.gov.au/fwo/IDW60801/IDW60801.94638.json